Time;durP1;ratioP1;P1;durP2;ratioP2;P2;SDS_P1;SDS_P2;PMS_P1;PMS_P2;Temp;Humidity;BMP_temperature;BMP_pressure;BME280_temperature;BME280_humidity;BME280_pressure;Samples;Min_cycle;Max_cycle;Signal;HPM_P1;HPM_P2
2023/12/11 00:02:01;;;;;;;29.13;5.10;;;11.60;99.90;;;;;;5053029;28;20820;-62
2023/12/11 00:04:27;;;;;;;20.80;4.30;;;11.70;99.90;;;;;;5052744;28;20838;-62
2023/12/11 00:06:55;;;;;;;20.20;5.20;;;11.60;99.90;;;;;;5053352;28;20873;-62
2023/12/11 00:09:22;;;;;;;15.07;3.50;;;11.70;99.90;;;;;;5053415;28;20444;-62
2023/12/11 00:11:50;;;;;;;15.10;4.97;;;11.60;99.90;;;;;;5053024;28;20496;-62
2023/12/11 00:14:17;;;;;;;12.40;3.80;;;11.60;99.90;;;;;;5052920;28;20958;-62
2023/12/11 00:16:45;;;;;;;21.10;3.70;;;11.60;99.90;;;;;;5053211;28;20445;-62
2023/12/11 00:19:12;;;;;;;22.07;4.10;;;11.70;99.90;;;;;;5053024;28;20446;-63
2023/12/11 00:21:39;;;;;;;17.87;4.40;;;11.70;99.90;;;;;;5053398;28;20457;-63
2023/12/11 00:24:06;;;;;;;16.03;3.67;;;11.70;99.90;;;;;;5053748;28;20532;-62
2023/12/11 00:26:33;;;;;;;24.93;4.20;;;11.60;99.90;;;;;;5053524;28;20453;-62
2023/12/11 00:29:01;;;;;;;17.27;3.80;;;11.60;99.90;;;;;;5053504;28;20441;-62
2023/12/11 00:31:28;;;;;;;19.83;3.53;;;11.60;99.90;;;;;;5053182;28;20489;-63
2023/12/11 00:33:54;;;;;;;15.33;3.37;;;11.60;99.90;;;;;;5053824;28;20438;-62
2023/12/11 00:36:21;;;;;;;19.93;4.10;;;11.60;99.90;;;;;;5053310;28;20437;-62
2023/12/11 00:38:48;;;;;;;25.03;5.03;;;11.60;99.90;;;;;;5053213;28;20445;-62
2023/12/11 00:41:16;;;;;;;15.37;3.57;;;11.50;99.90;;;;;;5053043;28;20480;-62
2023/12/11 00:43:43;;;;;;;20.30;4.10;;;11.60;99.90;;;;;;5052786;28;20528;-62
2023/12/11 00:46:13;;;;;;;22.87;4.53;;;11.50;99.90;;;;;;5053274;28;20445;-62
2023/12/11 00:48:40;;;;;;;21.80;5.30;;;11.50;99.90;;;;;;5052823;28;20442;-62
2023/12/11 00:51:07;;;;;;;15.97;3.70;;;11.50;99.90;;;;;;5053383;28;20477;-62
2023/12/11 00:53:33;;;;;;;24.03;5.23;;;11.50;99.90;;;;;;5053442;28;20454;-62
2023/12/11 00:56:00;;;;;;;18.43;5.17;;;11.50;99.90;;;;;;5053293;28;20445;-62
2023/12/11 00:58:27;;;;;;;28.87;5.23;;;11.50;99.90;;;;;;5054928;28;20451;-63
2023/12/11 01:00:54;;;;;;;16.87;3.60;;;11.50;99.90;;;;;;5056438;28;20469;-62
2023/12/11 01:03:22;;;;;;;19.70;4.60;;;11.50;99.90;;;;;;5057087;28;20453;-62
2023/12/11 01:05:49;;;;;;;26.77;5.03;;;11.50;99.90;;;;;;5057663;28;20445;-62
2023/12/11 01:08:16;;;;;;;16.57;3.63;;;11.60;99.90;;;;;;5057693;28;20445;-63
2023/12/11 01:10:43;;;;;;;18.90;3.97;;;11.60;99.90;;;;;;5057266;28;20468;-62
2023/12/11 01:13:09;;;;;;;19.30;4.07;;;11.60;99.90;;;;;;5056292;28;20815;-63
2023/12/11 01:15:36;;;;;;;18.23;4.00;;;11.60;99.90;;;;;;5056092;28;20957;-62
2023/12/11 01:18:03;;;;;;;16.87;3.50;;;11.60;99.90;;;;;;5056254;28;20441;-62
2023/12/11 01:20:31;;;;;;;16.93;4.30;;;11.70;99.90;;;;;;5056181;28;20461;-62
2023/12/11 01:22:58;;;;;;;24.90;4.53;;;11.60;99.90;;;;;;5056189;28;20442;-62
2023/12/11 01:25:25;;;;;;;28.97;4.80;;;11.60;99.90;;;;;;5056116;28;20447;-61
2023/12/11 01:27:51;;;;;;;18.93;3.90;;;11.60;99.90;;;;;;5056126;28;20438;-62
2023/12/11 01:30:19;;;;;;;17.50;3.77;;;11.60;99.90;;;;;;5055885;28;20473;-62
2023/12/11 01:32:46;;;;;;;21.73;4.53;;;11.60;99.90;;;;;;5055750;28;21025;-62
2023/12/11 01:35:13;;;;;;;21.30;4.23;;;11.60;99.90;;;;;;5055639;28;20441;-62
2023/12/11 01:37:43;;;;;;;24.70;4.80;;;11.70;99.90;;;;;;5055775;28;20827;-62
2023/12/11 01:40:11;;;;;;;17.93;4.23;;;11.70;99.90;;;;;;5055800;28;20488;-62
2023/12/11 01:42:38;;;;;;;22.07;4.00;;;11.70;99.90;;;;;;5055808;28;20437;-62
2023/12/11 01:45:05;;;;;;;21.27;3.90;;;11.70;99.90;;;;;;5055809;28;20445;-62
2023/12/11 01:47:32;;;;;;;27.03;3.70;;;11.70;99.90;;;;;;5055888;28;20441;-62
2023/12/11 01:49:59;;;;;;;19.40;4.13;;;11.70;99.90;;;;;;5055879;28;20461;-62
2023/12/11 01:52:26;;;;;;;19.33;3.77;;;11.70;99.90;;;;;;5055564;28;20485;-62
2023/12/11 01:54:54;;;;;;;22.43;4.83;;;11.70;99.90;;;;;;5055640;28;20445;-62
2023/12/11 01:57:21;;;;;;;16.27;3.90;;;11.70;99.90;;;;;;5055020;28;20450;-62
2023/12/11 01:59:48;;;;;;;19.17;3.97;;;11.80;99.90;;;;;;5055438;28;20461;-62
2023/12/11 02:02:15;;;;;;;21.70;4.40;;;11.80;99.90;;;;;;5055037;28;20928;-62
2023/12/11 02:04:42;;;;;;;24.37;4.53;;;11.80;99.90;;;;;;5055383;28;20434;-62
2023/12/11 02:07:09;;;;;;;20.83;4.60;;;11.70;99.90;;;;;;5055200;28;20442;-62
2023/12/11 02:09:36;;;;;;;17.17;3.70;;;11.80;99.90;;;;;;5054832;28;20442;-62
2023/12/11 02:12:05;;;;;;;22.50;3.70;;;11.80;99.90;;;;;;5055236;28;20482;-63
2023/12/11 02:14:32;;;;;;;23.63;4.80;;;11.80;99.90;;;;;;5055169;28;20445;-62
2023/12/11 02:16:59;;;;;;;21.20;4.93;;;11.80;99.90;;;;;;5055179;28;20458;-62
2023/12/11 02:19:26;;;;;;;19.43;2.90;;;11.80;99.90;;;;;;5055028;28;20441;-62
2023/12/11 02:21:53;;;;;;;17.40;4.07;;;11.70;99.90;;;;;;5054771;28;20951;-62
2023/12/11 02:24:23;;;;;;;25.90;4.30;;;11.70;99.90;;;;;;5055936;28;20444;-62
2023/12/11 02:26:52;;;;;;;20.03;4.07;;;11.70;99.90;;;;;;5055010;28;20434;-62
2023/12/11 02:29:19;;;;;;;16.40;3.33;;;11.70;99.90;;;;;;5054910;28;20516;-62
2023/12/11 02:31:46;;;;;;;27.40;5.07;;;11.60;99.90;;;;;;5054630;28;20481;-62
2023/12/11 02:34:13;;;;;;;20.33;3.80;;;11.60;99.90;;;;;;5054624;28;20442;-63
2023/12/11 02:36:40;;;;;;;16.70;5.50;;;11.70;99.90;;;;;;5054810;28;20445;-62
2023/12/11 02:39:07;;;;;;;18.83;4.20;;;11.60;99.90;;;;;;5054806;28;20533;-63
2023/12/11 02:41:33;;;;;;;20.07;3.80;;;11.60;99.90;;;;;;5054592;28;20844;-62
2023/12/11 02:44:01;;;;;;;13.97;4.20;;;11.70;99.90;;;;;;5054395;28;20962;-62
2023/12/11 02:46:28;;;;;;;23.43;5.63;;;11.70;99.90;;;;;;5054195;28;20912;-62
2023/12/11 02:48:55;;;;;;;18.67;4.20;;;11.70;99.90;;;;;;5054132;28;20965;-63
2023/12/11 02:51:22;;;;;;;17.00;4.50;;;11.70;99.90;;;;;;5054089;28;20999;-63
2023/12/11 02:53:48;;;;;;;13.30;3.40;;;11.70;99.90;;;;;;5054539;28;20433;-62
2023/12/11 02:56:15;;;;;;;22.33;4.03;;;11.70;99.90;;;;;;5054449;28;20442;-62
2023/12/11 02:58:43;;;;;;;26.10;4.53;;;11.80;99.90;;;;;;5054411;28;20444;-62
2023/12/11 03:01:11;;;;;;;19.33;3.70;;;11.80;99.90;;;;;;5054157;28;20543;-62
2023/12/11 03:03:38;;;;;;;12.07;3.97;;;11.80;99.90;;;;;;5054002;28;20461;-62
2023/12/11 03:06:06;;;;;;;19.80;4.03;;;11.90;99.90;;;;;;5053878;28;20481;-62
2023/12/11 03:08:32;;;;;;;12.13;3.17;;;11.80;99.90;;;;;;5054140;28;20548;-62
2023/12/11 03:10:59;;;;;;;21.73;4.10;;;11.90;99.90;;;;;;5054008;28;21005;-62
2023/12/11 03:13:26;;;;;;;17.50;3.90;;;11.90;99.90;;;;;;5053988;28;20850;-62
2023/12/11 03:15:53;;;;;;;24.57;5.07;;;11.80;99.90;;;;;;5053820;28;20820;-62
2023/12/11 03:18:21;;;;;;;19.00;3.17;;;11.80;99.90;;;;;;5053524;28;20442;-62
2023/12/11 03:20:48;;;;;;;17.27;3.63;;;11.80;99.90;;;;;;5052903;28;20975;-62
2023/12/11 03:23:14;;;;;;;14.37;3.97;;;11.80;99.90;;;;;;5054022;28;20441;-62
2023/12/11 03:25:41;;;;;;;16.57;3.50;;;11.80;99.90;;;;;;5053826;28;20445;-62
2023/12/11 03:28:08;;;;;;;16.60;3.80;;;11.80;99.90;;;;;;5053797;28;20441;-62
2023/12/11 03:30:35;;;;;;;18.10;3.70;;;11.90;99.90;;;;;;5053699;28;20469;-62
2023/12/11 03:33:01;;;;;;;18.53;2.80;;;11.80;99.90;;;;;;5053627;28;20481;-62
2023/12/11 03:35:30;;;;;;;22.37;4.00;;;11.80;99.90;;;;;;5053517;28;20449;-63
2023/12/11 03:37:56;;;;;;;14.63;3.23;;;11.90;99.90;;;;;;5054586;28;20447;-63
2023/12/11 03:40:23;;;;;;;23.20;4.90;;;11.90;99.90;;;;;;5053776;28;20471;-62
2023/12/11 03:42:50;;;;;;;18.40;3.73;;;11.80;99.90;;;;;;5053744;28;20442;-62
2023/12/11 03:45:17;;;;;;;15.40;3.73;;;11.90;99.90;;;;;;5053696;28;20449;-63
2023/12/11 03:47:43;;;;;;;17.53;3.33;;;11.90;99.90;;;;;;5053579;28;20456;-63
2023/12/11 03:50:10;;;;;;;18.23;3.33;;;11.90;99.80;;;;;;5053503;28;20467;-62
2023/12/11 03:52:38;;;;;;;15.50;3.23;;;11.90;99.70;;;;;;5053503;28;20481;-62
2023/12/11 03:55:07;;;;;;;23.17;4.30;;;11.90;99.60;;;;;;5053186;28;20448;-62
2023/12/11 03:57:34;;;;;;;16.70;3.80;;;11.90;99.40;;;;;;5053205;28;20449;-62
2023/12/11 04:00:01;;;;;;;11.40;3.13;;;11.90;99.60;;;;;;5053286;28;20461;-62
2023/12/11 04:02:27;;;;;;;19.90;4.13;;;11.90;99.80;;;;;;5053160;28;20444;-62
2023/12/11 04:04:54;;;;;;;20.97;3.67;;;11.90;99.60;;;;;;5052884;28;20429;-62
2023/12/11 04:07:21;;;;;;;13.57;2.90;;;11.90;99.70;;;;;;5052981;28;20448;-62
2023/12/11 04:09:49;;;;;;;16.33;3.47;;;11.90;99.70;;;;;;5052971;28;20476;-62
2023/12/11 04:12:16;;;;;;;16.90;4.63;;;11.90;99.90;;;;;;5052874;28;20998;-62
2023/12/11 04:14:43;;;;;;;11.30;3.07;;;11.90;99.80;;;;;;5052929;28;20446;-62
2023/12/11 04:17:10;;;;;;;19.83;3.07;;;11.90;99.50;;;;;;5053247;28;20457;-62
2023/12/11 04:19:37;;;;;;;15.43;3.30;;;11.90;99.80;;;;;;5053035;28;20445;-62
2023/12/11 04:22:04;;;;;;;15.77;3.70;;;11.80;99.30;;;;;;5053182;28;20448;-62
2023/12/11 04:24:30;;;;;;;29.10;6.00;;;11.90;99.70;;;;;;5053221;28;20457;-60
2023/12/11 04:26:58;;;;;;;20.50;3.97;;;11.90;99.90;;;;;;5053087;28;20444;-60
2023/12/11 04:29:25;;;;;;;19.57;3.93;;;11.90;99.90;;;;;;5053070;28;20445;-61
2023/12/11 04:31:52;;;;;;;20.90;3.73;;;11.80;99.90;;;;;;5054174;28;20461;-61
2023/12/11 04:34:19;;;;;;;16.80;3.10;;;11.80;99.90;;;;;;5056950;28;20443;-61
2023/12/11 04:36:46;;;;;;;14.80;3.50;;;11.80;99.90;;;;;;5057024;28;20453;-60
2023/12/11 04:39:13;;;;;;;10.67;2.90;;;11.80;99.90;;;;;;5056942;28;20447;-60
2023/12/11 04:41:40;;;;;;;15.00;2.87;;;11.80;99.90;;;;;;5056884;28;20465;-62
2023/12/11 04:44:08;;;;;;;19.90;3.30;;;11.80;99.90;;;;;;5056922;28;20923;-60
2023/12/11 04:46:35;;;;;;;20.77;4.30;;;11.70;99.90;;;;;;5056923;28;20460;-60
2023/12/11 04:49:01;;;;;;;19.10;3.93;;;11.60;99.90;;;;;;5057027;28;20437;-60
2023/12/11 04:51:28;;;;;;;15.80;4.40;;;11.50;99.90;;;;;;5056679;28;20461;-60
2023/12/11 04:53:55;;;;;;;18.13;3.73;;;11.40;99.90;;;;;;5056575;28;20511;-60
2023/12/11 04:56:24;;;;;;;18.87;3.60;;;11.40;99.90;;;;;;5056615;28;20445;-61
2023/12/11 04:58:51;;;;;;;15.30;3.03;;;11.30;99.90;;;;;;5056853;28;20451;-60
2023/12/11 05:01:19;;;;;;;17.90;3.40;;;11.30;99.90;;;;;;5056265;28;20979;-60
2023/12/11 05:03:45;;;;;;;14.83;2.93;;;11.20;99.90;;;;;;5056427;28;20450;-60
2023/12/11 05:06:12;;;;;;;18.10;4.00;;;11.10;99.90;;;;;;5056580;28;20445;-60
2023/12/11 05:08:39;;;;;;;15.40;3.40;;;11.00;99.90;;;;;;5057472;28;20441;-60
2023/12/11 05:11:07;;;;;;;8.67;2.40;;;11.10;99.90;;;;;;5056442;28;20469;-60
2023/12/11 05:13:33;;;;;;;13.60;4.40;;;11.10;99.90;;;;;;5056300;28;20481;-61
2023/12/11 05:16:01;;;;;;;25.53;4.93;;;11.10;99.90;;;;;;5056375;28;20441;-61
2023/12/11 05:18:30;;;;;;;18.43;3.50;;;11.10;99.90;;;;;;5056056;28;20897;-61
2023/12/11 05:20:56;;;;;;;18.30;3.67;;;11.10;99.90;;;;;;5056309;28;20512;-61
2023/12/11 05:23:23;;;;;;;13.50;3.63;;;11.10;99.90;;;;;;5055939;28;20814;-61
2023/12/11 05:25:50;;;;;;;13.10;3.87;;;11.00;99.90;;;;;;5055931;28;20932;-61
2023/12/11 05:28:17;;;;;;;11.00;2.60;;;11.10;99.90;;;;;;5056396;28;20498;-61
2023/12/11 05:30:43;;;;;;;14.33;3.00;;;11.00;99.90;;;;;;5056258;28;20548;-61
2023/12/11 05:33:10;;;;;;;11.13;2.57;;;11.00;99.90;;;;;;5056069;28;20477;-61
2023/12/11 05:35:38;;;;;;;10.23;2.23;;;11.00;99.90;;;;;;5056056;28;20448;-61
2023/12/11 05:38:05;;;;;;;16.20;2.77;;;11.00;99.90;;;;;;5056032;28;20445;-61
2023/12/11 05:40:32;;;;;;;8.23;1.63;;;11.00;99.90;;;;;;5055851;28;20462;-61
2023/12/11 05:42:58;;;;;;;5.87;1.47;;;10.90;99.90;;;;;;5055465;28;20436;-61
2023/12/11 05:45:26;;;;;;;9.60;1.67;;;10.80;99.90;;;;;;5055684;28;20480;-62
2023/12/11 05:47:52;;;;;;;7.47;1.73;;;10.80;99.90;;;;;;5055781;28;20519;-61
2023/12/11 05:50:19;;;;;;;9.23;2.53;;;10.80;99.90;;;;;;5055870;28;20457;-61
2023/12/11 05:52:47;;;;;;;11.93;2.83;;;10.70;99.90;;;;;;5055436;28;20477;-61
2023/12/11 05:55:14;;;;;;;14.60;2.67;;;10.80;99.90;;;;;;5055616;28;20446;-62
2023/12/11 05:57:41;;;;;;;12.70;2.87;;;10.70;99.90;;;;;;5055319;28;20940;-62
2023/12/11 06:00:11;;;;;;;10.53;2.80;;;10.70;99.90;;;;;;5065634;28;20853;-61
2023/12/11 06:02:39;;;;;;;14.17;3.30;;;10.70;99.90;;;;;;5075234;28;20551;-62
2023/12/11 06:05:08;;;;;;;17.43;2.80;;;10.70;99.90;;;;;;5075373;28;20447;-61
2023/12/11 06:07:35;;;;;;;13.63;2.93;;;10.80;99.90;;;;;;5075438;28;20452;-61
2023/12/11 06:10:03;;;;;;;15.20;3.33;;;10.80;99.90;;;;;;5075334;28;20452;-61
2023/12/11 06:12:30;;;;;;;14.23;3.23;;;10.80;99.90;;;;;;5075183;28;20448;-61
2023/12/11 06:14:56;;;;;;;16.70;3.30;;;10.80;99.90;;;;;;5075113;28;20436;-62
2023/12/11 06:17:23;;;;;;;19.37;3.87;;;10.90;99.90;;;;;;5075163;28;20447;-62
2023/12/11 06:19:50;;;;;;;15.90;3.20;;;10.90;99.90;;;;;;5075031;28;20464;-62
2023/12/11 06:22:17;;;;;;;16.37;3.40;;;10.90;99.90;;;;;;5074739;28;20926;-62
2023/12/11 06:24:44;;;;;;;11.67;3.10;;;10.80;99.90;;;;;;5074744;28;20931;-62
2023/12/11 06:27:12;;;;;;;13.10;3.77;;;10.90;99.90;;;;;;5074696;28;20938;-62
2023/12/11 06:29:39;;;;;;;13.97;3.20;;;10.90;99.90;;;;;;5074895;28;20445;-62
2023/12/11 06:32:08;;;;;;;12.13;2.90;;;10.90;99.90;;;;;;5074850;28;20444;-62
2023/12/11 06:34:35;;;;;;;17.13;3.43;;;10.90;99.90;;;;;;5074841;28;20491;-62
2023/12/11 06:37:02;;;;;;;10.50;3.00;;;10.90;99.90;;;;;;5074846;28;20448;-62
2023/12/11 06:39:29;;;;;;;17.13;3.60;;;10.90;99.90;;;;;;5074456;28;20922;-62
2023/12/11 06:41:55;;;;;;;13.13;2.73;;;11.00;99.90;;;;;;5074736;28;20448;-62
2023/12/11 06:44:24;;;;;;;18.00;3.40;;;11.00;99.90;;;;;;5074691;28;20437;-62
2023/12/11 06:46:52;;;;;;;8.60;2.50;;;11.00;99.90;;;;;;5074831;28;20821;-62
2023/12/11 06:49:19;;;;;;;14.00;5.10;;;11.10;99.90;;;;;;5074717;28;20819;-63
2023/12/11 06:51:46;;;;;;;9.97;2.50;;;11.00;99.90;;;;;;5074799;28;20460;-63
2023/12/11 06:54:13;;;;;;;10.13;2.20;;;11.10;99.90;;;;;;5074690;28;20480;-62
2023/12/11 06:56:40;;;;;;;19.10;3.10;;;11.10;99.90;;;;;;5073370;28;20933;-62
2023/12/11 06:59:07;;;;;;;17.90;3.07;;;11.10;99.90;;;;;;5074445;28;20448;-62
2023/12/11 07:01:35;;;;;;;17.83;3.57;;;11.20;99.90;;;;;;5074176;28;20559;-62
2023/12/11 07:04:02;;;;;;;16.90;2.90;;;11.20;99.90;;;;;;5074264;28;20981;-62
2023/12/11 07:06:29;;;;;;;10.70;3.03;;;11.20;99.90;;;;;;5074272;28;20441;-62
2023/12/11 07:08:57;;;;;;;13.10;3.90;;;11.20;99.90;;;;;;5074328;28;20447;-62
2023/12/11 07:11:24;;;;;;;11.50;2.80;;;11.20;99.90;;;;;;5073949;28;20978;-62
2023/12/11 07:13:51;;;;;;;15.00;2.60;;;11.20;99.90;;;;;;5073952;28;20472;-62
2023/12/11 07:16:18;;;;;;;11.87;2.50;;;11.20;99.90;;;;;;5074060;28;20518;-62
2023/12/11 07:18:46;;;;;;;14.43;2.63;;;11.20;99.90;;;;;;5073973;28;20449;-62
2023/12/11 07:21:13;;;;;;;14.33;2.90;;;11.20;99.90;;;;;;5073901;28;20467;-62
2023/12/11 07:23:40;;;;;;;17.10;3.00;;;11.30;99.90;;;;;;5074166;28;20433;-62
2023/12/11 07:26:08;;;;;;;21.43;3.10;;;11.30;99.90;;;;;;5073811;28;20451;-62
2023/12/11 07:28:36;;;;;;;11.63;2.20;;;11.30;99.90;;;;;;5073972;28;20448;-62
2023/12/11 07:31:03;;;;;;;20.53;4.00;;;11.30;99.90;;;;;;5073464;28;20981;-62
2023/12/11 07:33:30;;;;;;;14.07;2.87;;;11.30;99.90;;;;;;5073757;28;20489;-62
2023/12/11 07:35:58;;;;;;;14.30;3.50;;;11.40;99.90;;;;;;5073378;28;20455;-61
2023/12/11 07:38:26;;;;;;;16.67;2.50;;;11.30;99.90;;;;;;5073720;28;20449;-62
2023/12/11 07:40:54;;;;;;;13.60;2.90;;;11.30;99.90;;;;;;5073440;28;20551;-62
2023/12/11 07:43:20;;;;;;;12.40;3.20;;;11.40;99.90;;;;;;5073665;28;20436;-62
2023/12/11 07:45:47;;;;;;;21.37;4.03;;;11.40;99.90;;;;;;5073610;28;20451;-62
2023/12/11 07:48:14;;;;;;;18.87;3.97;;;11.50;99.90;;;;;;5073594;28;20441;-62
2023/12/11 07:50:41;;;;;;;12.90;2.63;;;11.40;99.90;;;;;;5073255;28;20986;-62
2023/12/11 07:53:09;;;;;;;12.60;2.90;;;11.50;99.90;;;;;;5073261;28;20781;-62
2023/12/11 07:55:36;;;;;;;21.00;3.70;;;11.40;99.90;;;;;;5073448;28;20436;-61
2023/12/11 07:58:03;;;;;;;14.00;3.10;;;11.40;99.90;;;;;;5073536;28;20445;-62
2023/12/11 08:00:30;;;;;;;9.80;2.77;;;11.50;99.90;;;;;;5073448;28;20456;-62
2023/12/11 08:02:57;;;;;;;7.90;2.60;;;11.40;99.90;;;;;;5073221;28;20453;-62
2023/12/11 08:05:24;;;;;;;11.27;2.93;;;11.40;99.90;;;;;;5073450;28;20436;-62
2023/12/11 08:07:51;;;;;;;17.57;3.43;;;11.40;99.90;;;;;;5073406;28;20810;-62
2023/12/11 08:10:19;;;;;;;13.00;2.93;;;11.50;99.90;;;;;;5073381;28;20470;-62
2023/12/11 08:12:50;;;;;;;11.50;3.43;;;11.50;99.90;;;;;;5073395;28;20445;-62
2023/12/11 08:15:17;;;;;;;16.00;2.80;;;11.50;99.90;;;;;;5073346;28;20465;-62
2023/12/11 08:17:44;;;;;;;12.80;3.03;;;11.50;99.90;;;;;;5073305;28;20441;-62
2023/12/11 08:20:14;;;;;;;15.53;3.53;;;11.50;99.90;;;;;;5073428;28;20826;-62
2023/12/11 08:22:41;;;;;;;15.77;4.60;;;11.50;99.90;;;;;;5073700;28;20468;-62
2023/12/11 08:25:08;;;;;;;14.43;2.73;;;11.50;99.90;;;;;;5073334;28;20441;-62
2023/12/11 08:27:36;;;;;;;12.90;3.00;;;11.50;99.90;;;;;;5073405;28;20446;-62
2023/12/11 08:30:04;;;;;;;19.20;3.60;;;11.60;99.90;;;;;;5073476;28;20464;-62
2023/12/11 08:32:30;;;;;;;12.17;3.20;;;11.60;99.90;;;;;;5073612;28;20441;-62
2023/12/11 08:35:03;;;;;;;18.60;3.50;;;11.60;99.90;;;;;;5073591;28;20488;-62
2023/12/11 08:37:29;;;;;;;18.97;3.43;;;11.60;99.90;;;;;;5073641;28;20428;-62
2023/12/11 08:39:56;;;;;;;17.90;3.70;;;11.60;99.90;;;;;;5072983;28;20466;-62
2023/12/11 08:42:23;;;;;;;13.97;3.63;;;11.60;99.90;;;;;;5073146;28;20444;-62
2023/12/11 08:44:51;;;;;;;16.67;3.90;;;11.60;99.90;;;;;;5073408;28;20436;-62
2023/12/11 08:47:18;;;;;;;13.17;3.20;;;11.70;99.90;;;;;;5073286;28;20449;-62
2023/12/11 08:49:45;;;;;;;13.37;3.30;;;11.70;99.90;;;;;;5073321;28;20452;-62
2023/12/11 08:52:11;;;;;;;18.00;4.00;;;11.60;99.90;;;;;;5073271;28;20562;-62
2023/12/11 08:54:38;;;;;;;20.37;3.30;;;11.70;99.90;;;;;;5072869;28;20998;-62
2023/12/11 08:57:05;;;;;;;16.97;3.00;;;11.60;99.90;;;;;;5072664;28;20446;-63
2023/12/11 08:59:32;;;;;;;10.43;2.80;;;11.50;99.90;;;;;;5066271;28;20470;-62
2023/12/11 09:02:00;;;;;;;15.23;3.20;;;11.50;99.90;;;;;;5052795;28;20453;-62
2023/12/11 09:04:27;;;;;;;19.43;3.03;;;11.40;99.90;;;;;;5052542;28;20457;-62
2023/12/11 09:06:54;;;;;;;12.37;2.83;;;11.40;99.90;;;;;;5052858;28;20441;-62
2023/12/11 09:09:20;;;;;;;14.93;3.00;;;11.50;99.90;;;;;;5052861;28;20437;-62
2023/12/11 09:11:48;;;;;;;14.93;3.40;;;11.50;99.90;;;;;;5052789;28;20465;-62
2023/12/11 09:14:15;;;;;;;14.17;4.23;;;11.40;99.90;;;;;;5052880;28;20485;-62
2023/12/11 09:16:42;;;;;;;10.50;3.40;;;11.40;99.90;;;;;;5052664;28;20441;-62
2023/12/11 09:19:10;;;;;;;10.70;3.60;;;11.40;99.90;;;;;;5054490;28;20445;-62
2023/12/11 09:21:37;;;;;;;17.80;4.10;;;11.40;99.90;;;;;;5056173;28;20469;-62
2023/12/11 09:24:04;;;;;;;16.33;2.70;;;11.50;99.90;;;;;;5056055;28;20448;-62
2023/12/11 09:26:31;;;;;;;14.90;2.87;;;11.40;99.90;;;;;;5056392;28;20499;-62
2023/12/11 09:28:58;;;;;;;10.60;2.80;;;11.40;99.90;;;;;;5056219;28;20445;-62
2023/12/11 09:31:25;;;;;;;16.60;3.17;;;11.30;99.90;;;;;;5056629;28;20461;-62
2023/12/11 09:33:51;;;;;;;21.40;3.97;;;11.30;99.90;;;;;;5056553;28;20495;-62
2023/12/11 09:36:20;;;;;;;22.40;4.30;;;11.30;99.90;;;;;;5055676;28;20446;-62
2023/12/11 09:38:47;;;;;;;18.50;4.23;;;11.30;99.90;;;;;;5056022;28;20814;-61
2023/12/11 09:41:14;;;;;;;17.60;4.47;;;11.30;99.90;;;;;;5056088;28;20458;-61
2023/12/11 09:43:41;;;;;;;18.90;4.10;;;11.30;99.90;;;;;;5055830;28;20445;-62
2023/12/11 09:46:12;;;;;;;14.33;3.90;;;11.20;99.90;;;;;;5055731;28;20451;-62
2023/12/11 09:48:39;;;;;;;20.27;3.93;;;11.20;99.90;;;;;;5055739;28;20885;-62
2023/12/11 09:51:05;;;;;;;12.40;3.50;;;11.20;99.90;;;;;;5055678;28;20469;-62
2023/12/11 09:53:36;;;;;;;20.47;4.43;;;11.10;99.90;;;;;;5055550;28;20445;-62
2023/12/11 09:56:04;;;;;;;22.10;4.13;;;11.10;99.90;;;;;;5055427;28;20449;-61
2023/12/11 09:58:31;;;;;;;14.73;3.77;;;11.10;99.90;;;;;;5055322;28;20438;-62
2023/12/11 10:01:00;;;;;;;16.63;3.20;;;11.20;99.90;;;;;;5055513;28;20472;-62
2023/12/11 10:03:28;;;;;;;14.03;3.13;;;11.20;99.90;;;;;;5055321;28;20948;-62
2023/12/11 10:05:59;;;;;;;16.90;3.33;;;11.40;99.90;;;;;;5056416;28;20437;-62
2023/12/11 10:08:26;;;;;;;9.67;3.73;;;11.50;99.90;;;;;;5056312;28;20438;-62
2023/12/11 10:11:09;;;;;;;18.97;3.80;;;11.50;99.90;;;;;;5055468;28;20941;-62
2023/12/11 10:13:36;;;;;;;8.03;2.87;;;11.50;99.90;;;;;;5055699;28;20418;-62
2023/12/11 10:16:03;;;;;;;19.30;4.57;;;11.50;99.90;;;;;;5055260;28;20438;-62
2023/12/11 10:18:30;;;;;;;13.50;3.80;;;11.50;99.90;;;;;;5055513;28;20444;-62
2023/12/11 10:21:00;;;;;;;16.57;4.17;;;11.60;99.90;;;;;;5055506;28;20823;-62
2023/12/11 10:23:27;;;;;;;18.57;3.83;;;11.60;99.90;;;;;;5055045;28;20476;-62
2023/12/11 10:26:04;;;;;;;16.97;3.20;;;11.60;99.90;;;;;;5054887;28;20452;-62
2023/12/11 10:28:33;;;;;;;15.40;3.70;;;11.70;99.90;;;;;;5055099;28;20421;-62
2023/12/11 10:31:04;;;;;;;19.33;2.87;;;11.80;99.90;;;;;;5054782;28;20496;-62
2023/12/11 10:33:31;;;;;;;15.43;3.73;;;11.80;99.90;;;;;;5054994;28;20434;-62
2023/12/11 10:36:09;;;;;;;15.90;4.27;;;11.90;99.90;;;;;;5054635;28;20492;-62
2023/12/11 10:38:36;;;;;;;10.90;4.20;;;11.90;99.90;;;;;;5054881;28;20491;-62
2023/12/11 10:41:03;;;;;;;18.80;3.13;;;11.80;99.90;;;;;;5054831;28;20457;-62
2023/12/11 10:43:41;;;;;;;10.70;3.07;;;11.90;99.90;;;;;;5054437;28;20943;-62
2023/12/11 10:46:08;;;;;;;16.30;3.17;;;11.80;99.90;;;;;;5054749;28;20469;-62
2023/12/11 10:48:35;;;;;;;14.93;3.17;;;11.70;99.90;;;;;;5054669;28;20437;-62
2023/12/11 10:51:03;;;;;;;16.70;3.30;;;11.70;99.90;;;;;;5054663;28;20519;-62
2023/12/11 10:53:30;;;;;;;10.90;3.27;;;11.60;99.90;;;;;;5054606;28;20808;-62
2023/12/11 10:55:59;;;;;;;15.80;3.30;;;11.60;99.90;;;;;;5054669;28;20477;-62
2023/12/11 10:58:26;;;;;;;16.03;4.03;;;11.50;99.90;;;;;;5054202;28;20966;-62
2023/12/11 11:00:56;;;;;;;12.67;3.60;;;11.50;99.90;;;;;;5054411;28;20473;-61
2023/12/11 11:03:23;;;;;;;11.77;3.97;;;11.40;99.90;;;;;;5054266;28;20461;-61
2023/12/11 11:05:52;;;;;;;13.67;3.40;;;11.40;99.90;;;;;;5054342;28;20446;-61
2023/12/11 11:08:25;;;;;;;14.17;3.50;;;11.40;99.90;;;;;;5054063;28;21007;-61
2023/12/11 11:10:58;;;;;;;14.53;3.10;;;11.40;99.90;;;;;;5054177;28;20466;-61
2023/12/11 11:13:30;;;;;;;12.77;3.80;;;11.50;99.90;;;;;;5053990;28;20928;-61
2023/12/11 11:15:58;;;;;;;9.07;2.80;;;11.50;99.90;;;;;;5054087;28;20461;-62
2023/12/11 11:18:25;;;;;;;16.70;3.30;;;11.60;99.90;;;;;;5064921;28;20830;-61
2023/12/11 11:21:12;;;;;;;9.13;2.63;;;11.50;99.90;;;;;;5074193;28;20457;-62
2023/12/11 11:23:43;;;;;;;10.63;3.07;;;11.60;99.90;;;;;;5075319;28;20439;-62
2023/12/11 11:26:31;;;;;;;15.90;3.10;;;11.30;99.90;;;;;;5074264;28;20505;-60
2023/12/11 11:28:58;;;;;;;18.53;4.50;;;11.20;99.90;;;;;;5074435;28;20899;-61
2023/12/11 11:31:48;;;;;;;11.43;3.60;;;11.10;99.90;;;;;;5074024;28;20472;-61
2023/12/11 11:34:15;;;;;;;10.63;3.23;;;11.00;99.90;;;;;;5073838;28;20518;-60
2023/12/11 11:36:46;;;;;;;17.90;5.37;;;11.00;99.90;;;;;;5073713;28;20441;-60
2023/12/11 11:39:13;;;;;;;10.03;3.33;;;10.90;99.90;;;;;;5073922;28;20494;-61
2023/12/11 11:41:41;;;;;;;13.90;2.87;;;10.90;99.90;;;;;;5072983;28;20471;-60
2023/12/11 11:44:09;;;;;;;11.07;2.73;;;10.80;99.90;;;;;;5074051;28;20810;-61
2023/12/11 11:46:51;;;;;;;11.07;2.50;;;10.90;99.90;;;;;;5073895;28;20480;-61
2023/12/11 11:49:31;;;;;;;10.63;2.60;;;11.00;99.90;;;;;;5075015;28;20448;-61
2023/12/11 11:51:58;;;;;;;11.87;2.50;;;11.20;99.90;;;;;;5073234;28;20971;-61
2023/12/11 11:54:25;;;;;;;11.30;3.17;;;11.30;99.90;;;;;;5073369;28;20444;-61
2023/12/11 11:56:52;;;;;;;9.70;2.60;;;11.40;99.90;;;;;;5073567;28;20441;-61
2023/12/11 11:59:20;;;;;;;9.63;3.07;;;11.40;99.90;;;;;;5068787;28;20462;-61
2023/12/11 12:01:52;;;;;;;12.40;3.00;;;11.30;99.90;;;;;;5053364;28;20462;-61
2023/12/11 12:04:29;;;;;;;12.87;3.30;;;11.30;99.90;;;;;;5053303;28;20871;-62
2023/12/11 12:06:58;;;;;;;11.73;3.47;;;11.30;99.90;;;;;;5053423;28;20759;-62
2023/12/11 12:09:25;;;;;;;15.70;2.90;;;11.30;99.90;;;;;;5053203;28;20426;-62
2023/12/11 12:11:52;;;;;;;7.93;2.70;;;11.30;99.90;;;;;;5053325;28;20492;-62
2023/12/11 12:14:19;;;;;;;9.50;2.57;;;11.30;99.90;;;;;;5053143;28;20460;-62
2023/12/11 12:16:46;;;;;;;11.47;3.17;;;11.30;99.90;;;;;;5053168;28;20433;-62
2023/12/11 12:19:15;;;;;;;13.80;3.43;;;11.30;99.90;;;;;;5053292;28;20808;-62
2023/12/11 12:21:51;;;;;;;11.30;4.10;;;11.40;99.90;;;;;;5053145;28;20461;-62
2023/12/11 12:24:18;;;;;;;5.47;1.80;;;11.50;99.90;;;;;;5052955;28;20955;-62
2023/12/11 12:26:46;;;;;;;9.37;2.03;;;11.50;99.90;;;;;;5053149;28;20447;-62
2023/12/11 12:29:14;;;;;;;5.60;2.17;;;11.60;99.90;;;;;;5053186;28;20441;-62
2023/12/11 12:31:41;;;;;;;5.83;1.70;;;11.70;99.90;;;;;;5052990;28;20556;-62
2023/12/11 12:34:08;;;;;;;6.93;2.77;;;11.70;99.90;;;;;;5052833;28;20434;-62
2023/12/11 12:36:37;;;;;;;13.87;3.70;;;11.80;99.90;;;;;;5053083;28;20477;-62
2023/12/11 12:39:05;;;;;;;7.90;2.63;;;11.70;99.90;;;;;;5053382;28;20445;-62
2023/12/11 12:41:32;;;;;;;5.40;1.87;;;11.60;99.90;;;;;;5052940;28;20508;-62